sensor_id;sensor_type;location;lat;lon;timestamp;P1;durP1;ratioP1;P2;durP2;ratioP2
17592;SDS011;8915;51.760;14.300;2022-09-03T00:00:27;1.27;;;0.80;;
17592;SDS011;8915;51.760;14.300;2022-09-03T00:02:58;2.57;;;1.00;;
17592;SDS011;8915;51.760;14.300;2022-09-03T00:05:31;0.70;;;0.70;;
17592;SDS011;8915;51.760;14.300;2022-09-03T00:08:05;1.33;;;0.90;;
17592;SDS011;8915;51.760;14.300;2022-09-03T00:10:36;2.97;;;1.00;;
17592;SDS011;8915;51.760;14.300;2022-09-03T00:13:11;2.47;;;0.90;;
17592;SDS011;8915;51.760;14.300;2022-09-03T00:15:41;3.27;;;0.83;;
17592;SDS011;8915;51.760;14.300;2022-09-03T00:18:08;1.60;;;0.90;;
17592;SDS011;8915;51.760;14.300;2022-09-03T00:20:40;2.47;;;0.90;;
17592;SDS011;8915;51.760;14.300;2022-09-03T00:23:13;0.77;;;0.70;;
17592;SDS011;8915;51.760;14.300;2022-09-03T00:25:46;1.27;;;0.90;;
17592;SDS011;8915;51.760;14.300;2022-09-03T00:28:18;1.00;;;0.90;;
17592;SDS011;8915;51.760;14.300;2022-09-03T00:30:50;1.10;;;0.80;;
17592;SDS011;8915;51.760;14.300;2022-09-03T00:33:35;1.80;;;0.90;;
17592;SDS011;8915;51.760;14.300;2022-09-03T00:36:09;1.20;;;0.80;;
17592;SDS011;8915;51.760;14.300;2022-09-03T00:38:43;1.23;;;0.97;;
17592;SDS011;8915;51.760;14.300;2022-09-03T00:41:16;1.60;;;0.93;;
17592;SDS011;8915;51.760;14.300;2022-09-03T00:43:53;2.40;;;0.97;;
17592;SDS011;8915;51.760;14.300;2022-09-03T00:46:32;1.37;;;1.00;;
17592;SDS011;8915;51.760;14.300;2022-09-03T00:49:08;5.37;;;1.27;;
17592;SDS011;8915;51.760;14.300;2022-09-03T00:51:50;7.30;;;1.10;;
17592;SDS011;8915;51.760;14.300;2022-09-03T00:54:28;6.17;;;1.00;;
17592;SDS011;8915;51.760;14.300;2022-09-03T00:57:15;1.17;;;1.07;;
17592;SDS011;8915;51.760;14.300;2022-09-03T00:59:51;2.50;;;1.20;;
17592;SDS011;8915;51.760;14.300;2022-09-03T01:02:23;1.57;;;0.87;;
17592;SDS011;8915;51.760;14.300;2022-09-03T01:04:59;2.03;;;1.00;;
17592;SDS011;8915;51.760;14.300;2022-09-03T01:07:35;1.40;;;0.97;;
17592;SDS011;8915;51.760;14.300;2022-09-03T01:10:14;1.10;;;1.00;;
17592;SDS011;8915;51.760;14.300;2022-09-03T01:12:49;1.53;;;1.00;;
17592;SDS011;8915;51.760;14.300;2022-09-03T01:15:21;1.37;;;1.00;;
17592;SDS011;8915;51.760;14.300;2022-09-03T01:18:01;1.83;;;1.30;;
17592;SDS011;8915;51.760;14.300;2022-09-03T01:20:38;1.10;;;0.97;;
17592;SDS011;8915;51.760;14.300;2022-09-03T01:23:21;1.33;;;1.00;;
17592;SDS011;8915;51.760;14.300;2022-09-03T01:26:08;0.83;;;0.83;;
17592;SDS011;8915;51.760;14.300;2022-09-03T01:28:51;1.17;;;0.80;;
17592;SDS011;8915;51.760;14.300;2022-09-03T01:31:31;1.73;;;1.27;;
17592;SDS011;8915;51.760;14.300;2022-09-03T01:34:07;0.80;;;0.80;;
17592;SDS011;8915;51.760;14.300;2022-09-03T01:36:44;1.10;;;1.00;;
17592;SDS011;8915;51.760;14.300;2022-09-03T01:39:19;1.23;;;1.10;;
17592;SDS011;8915;51.760;14.300;2022-09-03T01:41:54;2.07;;;1.07;;
17592;SDS011;8915;51.760;14.300;2022-09-03T01:44:44;1.47;;;1.00;;
17592;SDS011;8915;51.760;14.300;2022-09-03T01:47:25;2.50;;;1.10;;
17592;SDS011;8915;51.760;14.300;2022-09-03T01:50:12;2.23;;;0.90;;
17592;SDS011;8915;51.760;14.300;2022-09-03T01:52:48;2.90;;;0.93;;
17592;SDS011;8915;51.760;14.300;2022-09-03T01:55:23;1.47;;;1.17;;
17592;SDS011;8915;51.760;14.300;2022-09-03T01:57:57;1.07;;;0.93;;
17592;SDS011;8915;51.760;14.300;2022-09-03T02:00:28;1.03;;;0.93;;
17592;SDS011;8915;51.760;14.300;2022-09-03T02:02:59;3.67;;;1.30;;
17592;SDS011;8915;51.760;14.300;2022-09-03T02:05:30;1.43;;;1.00;;
17592;SDS011;8915;51.760;14.300;2022-09-03T02:07:57;2.03;;;1.20;;
17592;SDS011;8915;51.760;14.300;2022-09-03T02:10:26;1.10;;;0.90;;
17592;SDS011;8915;51.760;14.300;2022-09-03T02:12:57;1.00;;;0.90;;
17592;SDS011;8915;51.760;14.300;2022-09-03T02:15:30;1.10;;;1.00;;
17592;SDS011;8915;51.760;14.300;2022-09-03T02:18:00;1.43;;;1.20;;
17592;SDS011;8915;51.760;14.300;2022-09-03T02:20:31;1.50;;;1.10;;
17592;SDS011;8915;51.760;14.300;2022-09-03T02:22:57;1.10;;;1.00;;
17592;SDS011;8915;51.760;14.300;2022-09-03T02:25:27;1.50;;;1.20;;
17592;SDS011;8915;51.760;14.300;2022-09-03T02:27:57;1.70;;;1.07;;
17592;SDS011;8915;51.760;14.300;2022-09-03T02:30:25;1.83;;;1.10;;
17592;SDS011;8915;51.760;14.300;2022-09-03T02:32:52;1.10;;;1.00;;
17592;SDS011;8915;51.760;14.300;2022-09-03T02:35:19;1.43;;;1.30;;
17592;SDS011;8915;51.760;14.300;2022-09-03T02:37:45;1.57;;;1.00;;
17592;SDS011;8915;51.760;14.300;2022-09-03T02:40:11;1.47;;;1.10;;
17592;SDS011;8915;51.760;14.300;2022-09-03T02:42:38;2.23;;;1.13;;
17592;SDS011;8915;51.760;14.300;2022-09-03T02:45:06;1.23;;;1.00;;
17592;SDS011;8915;51.760;14.300;2022-09-03T02:47:38;1.50;;;1.40;;
17592;SDS011;8915;51.760;14.300;2022-09-03T02:50:09;3.43;;;1.10;;
17592;SDS011;8915;51.760;14.300;2022-09-03T02:52:35;2.90;;;1.10;;
17592;SDS011;8915;51.760;14.300;2022-09-03T02:55:02;1.83;;;1.33;;
17592;SDS011;8915;51.760;14.300;2022-09-03T02:57:29;3.00;;;1.37;;
17592;SDS011;8915;51.760;14.300;2022-09-03T02:59:55;1.27;;;1.00;;
17592;SDS011;8915;51.760;14.300;2022-09-03T03:02:21;1.53;;;1.17;;
17592;SDS011;8915;51.760;14.300;2022-09-03T03:04:48;1.87;;;1.00;;
17592;SDS011;8915;51.760;14.300;2022-09-03T03:07:15;2.67;;;1.43;;
17592;SDS011;8915;51.760;14.300;2022-09-03T03:09:42;1.43;;;1.27;;
17592;SDS011;8915;51.760;14.300;2022-09-03T03:12:08;1.60;;;1.27;;
17592;SDS011;8915;51.760;14.300;2022-09-03T03:14:34;3.27;;;1.40;;
17592;SDS011;8915;51.760;14.300;2022-09-03T03:17:01;1.47;;;1.30;;
17592;SDS011;8915;51.760;14.300;2022-09-03T03:19:27;1.40;;;1.30;;
17592;SDS011;8915;51.760;14.300;2022-09-03T03:21:53;1.80;;;1.23;;
17592;SDS011;8915;51.760;14.300;2022-09-03T03:24:21;1.60;;;1.17;;
17592;SDS011;8915;51.760;14.300;2022-09-03T03:26:47;2.37;;;1.30;;
17592;SDS011;8915;51.760;14.300;2022-09-03T03:29:15;2.47;;;1.17;;
17592;SDS011;8915;51.760;14.300;2022-09-03T03:31:42;1.67;;;1.10;;
17592;SDS011;8915;51.760;14.300;2022-09-03T03:34:09;1.27;;;1.07;;
17592;SDS011;8915;51.760;14.300;2022-09-03T03:36:35;1.57;;;1.10;;
17592;SDS011;8915;51.760;14.300;2022-09-03T03:39:02;2.03;;;1.30;;
17592;SDS011;8915;51.760;14.300;2022-09-03T03:41:30;1.63;;;1.13;;
17592;SDS011;8915;51.760;14.300;2022-09-03T03:43:57;1.80;;;1.43;;
17592;SDS011;8915;51.760;14.300;2022-09-03T03:46:28;1.53;;;1.27;;
17592;SDS011;8915;51.760;14.300;2022-09-03T03:48:55;2.47;;;1.20;;
17592;SDS011;8915;51.760;14.300;2022-09-03T03:51:22;1.27;;;1.17;;
17592;SDS011;8915;51.760;14.300;2022-09-03T03:53:48;1.47;;;1.23;;
17592;SDS011;8915;51.760;14.300;2022-09-03T03:56:19;2.00;;;1.20;;
17592;SDS011;8915;51.760;14.300;2022-09-03T03:58:47;1.13;;;1.03;;
17592;SDS011;8915;51.760;14.300;2022-09-03T04:01:14;1.53;;;1.13;;
17592;SDS011;8915;51.760;14.300;2022-09-03T04:03:42;1.37;;;1.00;;
17592;SDS011;8915;51.760;14.300;2022-09-03T04:06:09;2.03;;;1.30;;
17592;SDS011;8915;51.760;14.300;2022-09-03T04:08:38;1.33;;;1.20;;
17592;SDS011;8915;51.760;14.300;2022-09-03T04:11:06;1.57;;;1.27;;
17592;SDS011;8915;51.760;14.300;2022-09-03T04:13:35;1.93;;;1.30;;
17592;SDS011;8915;51.760;14.300;2022-09-03T04:16:05;2.83;;;1.50;;
17592;SDS011;8915;51.760;14.300;2022-09-03T04:18:33;2.03;;;1.40;;
17592;SDS011;8915;51.760;14.300;2022-09-03T04:21:00;1.83;;;1.50;;
17592;SDS011;8915;51.760;14.300;2022-09-03T04:23:28;1.20;;;1.10;;
17592;SDS011;8915;51.760;14.300;2022-09-03T04:25:55;2.73;;;1.30;;
17592;SDS011;8915;51.760;14.300;2022-09-03T04:28:22;1.37;;;1.27;;
17592;SDS011;8915;51.760;14.300;2022-09-03T04:30:48;1.30;;;1.20;;
17592;SDS011;8915;51.760;14.300;2022-09-03T04:33:16;1.50;;;1.40;;
17592;SDS011;8915;51.760;14.300;2022-09-03T04:35:43;1.67;;;1.40;;
17592;SDS011;8915;51.760;14.300;2022-09-03T04:38:09;2.67;;;1.20;;
17592;SDS011;8915;51.760;14.300;2022-09-03T04:40:36;2.03;;;1.33;;
17592;SDS011;8915;51.760;14.300;2022-09-03T04:43:02;1.53;;;1.20;;
17592;SDS011;8915;51.760;14.300;2022-09-03T04:45:29;1.50;;;1.30;;
17592;SDS011;8915;51.760;14.300;2022-09-03T04:47:56;1.43;;;1.03;;
17592;SDS011;8915;51.760;14.300;2022-09-03T04:50:25;2.03;;;1.50;;
17592;SDS011;8915;51.760;14.300;2022-09-03T04:52:58;1.57;;;1.30;;
17592;SDS011;8915;51.760;14.300;2022-09-03T04:55:26;3.30;;;1.40;;
17592;SDS011;8915;51.760;14.300;2022-09-03T04:57:52;1.53;;;1.10;;
17592;SDS011;8915;51.760;14.300;2022-09-03T05:00:19;1.50;;;1.23;;
17592;SDS011;8915;51.760;14.300;2022-09-03T05:02:46;1.80;;;1.23;;
17592;SDS011;8915;51.760;14.300;2022-09-03T05:05:13;1.73;;;1.23;;
17592;SDS011;8915;51.760;14.300;2022-09-03T05:07:41;3.33;;;1.27;;
17592;SDS011;8915;51.760;14.300;2022-09-03T05:10:08;0.93;;;0.93;;
17592;SDS011;8915;51.760;14.300;2022-09-03T05:12:37;4.27;;;1.33;;
17592;SDS011;8915;51.760;14.300;2022-09-03T05:15:03;1.20;;;1.00;;
17592;SDS011;8915;51.760;14.300;2022-09-03T05:17:31;1.50;;;1.03;;
17592;SDS011;8915;51.760;14.300;2022-09-03T05:19:57;1.10;;;1.00;;
17592;SDS011;8915;51.760;14.300;2022-09-03T05:22:23;2.53;;;1.20;;
17592;SDS011;8915;51.760;14.300;2022-09-03T05:24:51;1.40;;;1.10;;
17592;SDS011;8915;51.760;14.300;2022-09-03T05:27:20;1.27;;;1.17;;
17592;SDS011;8915;51.760;14.300;2022-09-03T05:29:47;1.93;;;0.97;;
17592;SDS011;8915;51.760;14.300;2022-09-03T05:32:13;1.47;;;0.90;;
17592;SDS011;8915;51.760;14.300;2022-09-03T05:34:41;1.63;;;1.30;;
17592;SDS011;8915;51.760;14.300;2022-09-03T05:37:07;1.10;;;1.00;;
17592;SDS011;8915;51.760;14.300;2022-09-03T05:39:34;1.33;;;1.23;;
17592;SDS011;8915;51.760;14.300;2022-09-03T05:42:01;1.33;;;1.17;;
17592;SDS011;8915;51.760;14.300;2022-09-03T05:44:28;3.50;;;1.10;;
17592;SDS011;8915;51.760;14.300;2022-09-03T05:46:54;2.00;;;1.50;;
17592;SDS011;8915;51.760;14.300;2022-09-03T05:49:21;1.43;;;1.33;;
17592;SDS011;8915;51.760;14.300;2022-09-03T05:51:47;1.73;;;1.30;;
17592;SDS011;8915;51.760;14.300;2022-09-03T05:54:14;1.23;;;1.10;;
17592;SDS011;8915;51.760;14.300;2022-09-03T05:56:40;2.77;;;1.30;;
17592;SDS011;8915;51.760;14.300;2022-09-03T05:59:08;1.30;;;1.20;;
17592;SDS011;8915;51.760;14.300;2022-09-03T06:01:36;1.60;;;1.20;;
17592;SDS011;8915;51.760;14.300;2022-09-03T06:04:04;1.63;;;1.10;;
17592;SDS011;8915;51.760;14.300;2022-09-03T06:06:32;1.00;;;0.90;;
17592;SDS011;8915;51.760;14.300;2022-09-03T06:09:00;2.10;;;1.10;;
17592;SDS011;8915;51.760;14.300;2022-09-03T06:11:29;1.27;;;1.10;;
17592;SDS011;8915;51.760;14.300;2022-09-03T06:13:57;1.30;;;1.00;;
17592;SDS011;8915;51.760;14.300;2022-09-03T06:16:26;2.67;;;1.40;;
17592;SDS011;8915;51.760;14.300;2022-09-03T06:18:53;2.23;;;1.10;;
17592;SDS011;8915;51.760;14.300;2022-09-03T06:21:20;3.03;;;0.90;;
17592;SDS011;8915;51.760;14.300;2022-09-03T06:23:48;2.20;;;1.40;;
17592;SDS011;8915;51.760;14.300;2022-09-03T06:26:15;1.63;;;1.20;;
17592;SDS011;8915;51.760;14.300;2022-09-03T06:28:43;1.03;;;0.90;;
17592;SDS011;8915;51.760;14.300;2022-09-03T06:31:12;2.00;;;1.10;;
17592;SDS011;8915;51.760;14.300;2022-09-03T06:33:42;4.17;;;1.50;;
17592;SDS011;8915;51.760;14.300;2022-09-03T06:36:09;1.80;;;1.10;;
17592;SDS011;8915;51.760;14.300;2022-09-03T06:38:38;3.07;;;1.13;;
17592;SDS011;8915;51.760;14.300;2022-09-03T06:41:06;1.43;;;1.20;;
17592;SDS011;8915;51.760;14.300;2022-09-03T06:43:35;1.90;;;1.20;;
17592;SDS011;8915;51.760;14.300;2022-09-03T06:46:03;1.93;;;1.07;;
17592;SDS011;8915;51.760;14.300;2022-09-03T06:48:31;2.57;;;1.30;;
17592;SDS011;8915;51.760;14.300;2022-09-03T06:51:00;1.07;;;0.97;;
17592;SDS011;8915;51.760;14.300;2022-09-03T06:53:28;1.57;;;1.10;;
17592;SDS011;8915;51.760;14.300;2022-09-03T06:55:56;4.30;;;1.50;;
17592;SDS011;8915;51.760;14.300;2022-09-03T06:58:24;2.67;;;1.60;;
17592;SDS011;8915;51.760;14.300;2022-09-03T07:00:54;3.87;;;1.53;;
17592;SDS011;8915;51.760;14.300;2022-09-03T07:03:26;1.37;;;1.10;;
17592;SDS011;8915;51.760;14.300;2022-09-03T07:05:52;1.97;;;1.17;;
17592;SDS011;8915;51.760;14.300;2022-09-03T07:08:20;2.00;;;1.00;;
17592;SDS011;8915;51.760;14.300;2022-09-03T07:10:46;1.43;;;0.90;;
17592;SDS011;8915;51.760;14.300;2022-09-03T07:13:13;1.20;;;1.00;;
17592;SDS011;8915;51.760;14.300;2022-09-03T07:15:39;1.80;;;1.20;;
17592;SDS011;8915;51.760;14.300;2022-09-03T07:18:06;1.07;;;1.00;;
17592;SDS011;8915;51.760;14.300;2022-09-03T07:20:32;2.03;;;1.37;;
17592;SDS011;8915;51.760;14.300;2022-09-03T07:22:59;1.70;;;1.20;;
17592;SDS011;8915;51.760;14.300;2022-09-03T07:25:26;1.07;;;0.97;;
17592;SDS011;8915;51.760;14.300;2022-09-03T07:27:53;2.40;;;1.13;;
17592;SDS011;8915;51.760;14.300;2022-09-03T07:30:20;2.33;;;1.50;;
17592;SDS011;8915;51.760;14.300;2022-09-03T07:32:46;1.53;;;1.10;;
17592;SDS011;8915;51.760;14.300;2022-09-03T07:35:15;1.13;;;1.00;;
17592;SDS011;8915;51.760;14.300;2022-09-03T07:37:42;2.17;;;1.20;;
17592;SDS011;8915;51.760;14.300;2022-09-03T07:40:09;2.53;;;0.93;;
17592;SDS011;8915;51.760;14.300;2022-09-03T07:42:37;1.30;;;1.03;;
17592;SDS011;8915;51.760;14.300;2022-09-03T07:45:05;1.63;;;1.20;;
17592;SDS011;8915;51.760;14.300;2022-09-03T07:47:34;2.73;;;1.20;;
17592;SDS011;8915;51.760;14.300;2022-09-03T07:50:01;1.80;;;1.20;;
17592;SDS011;8915;51.760;14.300;2022-09-03T07:52:28;1.53;;;1.10;;
17592;SDS011;8915;51.760;14.300;2022-09-03T07:54:55;2.57;;;1.37;;
17592;SDS011;8915;51.760;14.300;2022-09-03T07:57:21;3.03;;;1.40;;
17592;SDS011;8915;51.760;14.300;2022-09-03T07:59:49;2.10;;;1.70;;
17592;SDS011;8915;51.760;14.300;2022-09-03T08:02:15;1.63;;;1.47;;
17592;SDS011;8915;51.760;14.300;2022-09-03T08:04:41;1.50;;;1.40;;
17592;SDS011;8915;51.760;14.300;2022-09-03T08:07:09;1.33;;;1.00;;
17592;SDS011;8915;51.760;14.300;2022-09-03T08:09:35;4.90;;;1.27;;
17592;SDS011;8915;51.760;14.300;2022-09-03T08:12:02;2.27;;;1.33;;
17592;SDS011;8915;51.760;14.300;2022-09-03T08:14:29;2.10;;;1.07;;
17592;SDS011;8915;51.760;14.300;2022-09-03T08:16:57;1.00;;;0.90;;
17592;SDS011;8915;51.760;14.300;2022-09-03T08:19:24;3.60;;;1.83;;
17592;SDS011;8915;51.760;14.300;2022-09-03T08:21:50;1.87;;;1.03;;
17592;SDS011;8915;51.760;14.300;2022-09-03T08:24:17;1.37;;;1.10;;
17592;SDS011;8915;51.760;14.300;2022-09-03T08:26:45;1.70;;;1.03;;
17592;SDS011;8915;51.760;14.300;2022-09-03T08:29:11;2.10;;;1.10;;
17592;SDS011;8915;51.760;14.300;2022-09-03T08:31:37;2.20;;;1.20;;
17592;SDS011;8915;51.760;14.300;2022-09-03T08:34:05;1.83;;;1.30;;
17592;SDS011;8915;51.760;14.300;2022-09-03T08:36:33;1.23;;;1.00;;
17592;SDS011;8915;51.760;14.300;2022-09-03T08:39:02;1.03;;;0.93;;
17592;SDS011;8915;51.760;14.300;2022-09-03T08:41:35;1.97;;;1.20;;
17592;SDS011;8915;51.760;14.300;2022-09-03T08:44:21;2.00;;;1.40;;
17592;SDS011;8915;51.760;14.300;2022-09-03T08:46:52;3.10;;;1.10;;
17592;SDS011;8915;51.760;14.300;2022-09-03T08:49:24;2.50;;;1.07;;
17592;SDS011;8915;51.760;14.300;2022-09-03T08:51:54;1.67;;;1.23;;
17592;SDS011;8915;51.760;14.300;2022-09-03T08:54:23;1.10;;;1.00;;
17592;SDS011;8915;51.760;14.300;2022-09-03T08:56:52;2.00;;;1.00;;
17592;SDS011;8915;51.760;14.300;2022-09-03T08:59:20;1.20;;;1.10;;
17592;SDS011;8915;51.760;14.300;2022-09-03T09:01:49;1.37;;;1.20;;
17592;SDS011;8915;51.760;14.300;2022-09-03T09:04:22;1.90;;;1.30;;
17592;SDS011;8915;51.760;14.300;2022-09-03T09:07:00;2.03;;;1.10;;
17592;SDS011;8915;51.760;14.300;2022-09-03T09:09:34;1.83;;;1.10;;
17592;SDS011;8915;51.760;14.300;2022-09-03T09:12:14;1.93;;;1.23;;
17592;SDS011;8915;51.760;14.300;2022-09-03T09:14:48;1.40;;;1.10;;
17592;SDS011;8915;51.760;14.300;2022-09-03T09:17:24;3.90;;;1.30;;
17592;SDS011;8915;51.760;14.300;2022-09-03T09:20:05;1.83;;;1.10;;
17592;SDS011;8915;51.760;14.300;2022-09-03T09:22:40;2.10;;;1.03;;
17592;SDS011;8915;51.760;14.300;2022-09-03T09:25:11;1.40;;;0.90;;
17592;SDS011;8915;51.760;14.300;2022-09-03T09:27:41;1.30;;;1.10;;
17592;SDS011;8915;51.760;14.300;2022-09-03T09:30:16;2.63;;;1.40;;
17592;SDS011;8915;51.760;14.300;2022-09-03T09:32:43;1.40;;;1.20;;
17592;SDS011;8915;51.760;14.300;2022-09-03T09:35:13;1.67;;;1.33;;
17592;SDS011;8915;51.760;14.300;2022-09-03T09:37:47;1.67;;;1.20;;
17592;SDS011;8915;51.760;14.300;2022-09-03T09:40:21;1.60;;;1.37;;
17592;SDS011;8915;51.760;14.300;2022-09-03T09:42:50;1.50;;;1.30;;
17592;SDS011;8915;51.760;14.300;2022-09-03T09:45:22;2.60;;;1.10;;
17592;SDS011;8915;51.760;14.300;2022-09-03T09:47:49;2.63;;;1.30;;
17592;SDS011;8915;51.760;14.300;2022-09-03T09:50:22;1.77;;;1.17;;
17592;SDS011;8915;51.760;14.300;2022-09-03T09:52:58;1.83;;;1.13;;
17592;SDS011;8915;51.760;14.300;2022-09-03T09:55:28;1.30;;;1.20;;
17592;SDS011;8915;51.760;14.300;2022-09-03T09:58:03;1.27;;;1.10;;
17592;SDS011;8915;51.760;14.300;2022-09-03T10:00:30;1.83;;;1.10;;
17592;SDS011;8915;51.760;14.300;2022-09-03T10:02:58;1.10;;;1.00;;
17592;SDS011;8915;51.760;14.300;2022-09-03T10:05:28;2.57;;;1.30;;
17592;SDS011;8915;51.760;14.300;2022-09-03T10:07:58;3.70;;;1.40;;
17592;SDS011;8915;51.760;14.300;2022-09-03T10:10:26;3.37;;;1.20;;
17592;SDS011;8915;51.760;14.300;2022-09-03T10:13:00;3.00;;;1.47;;
17592;SDS011;8915;51.760;14.300;2022-09-03T10:15:31;3.33;;;1.23;;
17592;SDS011;8915;51.760;14.300;2022-09-03T10:18:04;2.60;;;1.00;;
17592;SDS011;8915;51.760;14.300;2022-09-03T10:20:40;1.53;;;1.10;;
17592;SDS011;8915;51.760;14.300;2022-09-03T10:23:16;1.50;;;1.17;;
17592;SDS011;8915;51.760;14.300;2022-09-03T10:25:50;2.07;;;1.30;;
17592;SDS011;8915;51.760;14.300;2022-09-03T10:28:28;1.77;;;1.30;;
17592;SDS011;8915;51.760;14.300;2022-09-03T10:31:04;1.93;;;1.10;;
17592;SDS011;8915;51.760;14.300;2022-09-03T10:33:43;1.10;;;1.00;;
17592;SDS011;8915;51.760;14.300;2022-09-03T10:36:16;1.40;;;1.10;;
17592;SDS011;8915;51.760;14.300;2022-09-03T10:38:46;1.87;;;0.97;;
17592;SDS011;8915;51.760;14.300;2022-09-03T10:41:20;2.23;;;1.33;;
17592;SDS011;8915;51.760;14.300;2022-09-03T10:44:02;1.47;;;1.10;;
17592;SDS011;8915;51.760;14.300;2022-09-03T10:46:45;1.73;;;1.10;;
17592;SDS011;8915;51.760;14.300;2022-09-03T10:49:28;1.87;;;1.20;;
17592;SDS011;8915;51.760;14.300;2022-09-03T10:52:11;2.33;;;1.30;;
17592;SDS011;8915;51.760;14.300;2022-09-03T10:54:46;2.93;;;1.10;;
17592;SDS011;8915;51.760;14.300;2022-09-03T10:57:25;2.47;;;1.50;;
17592;SDS011;8915;51.760;14.300;2022-09-03T11:00:04;1.90;;;1.50;;
17592;SDS011;8915;51.760;14.300;2022-09-03T11:05:30;1.77;;;1.43;;
17592;SDS011;8915;51.760;14.300;2022-09-03T11:08:04;1.97;;;1.30;;
17592;SDS011;8915;51.760;14.300;2022-09-03T11:10:36;1.67;;;1.20;;
17592;SDS011;8915;51.760;14.300;2022-09-03T11:13:09;1.30;;;1.20;;
17592;SDS011;8915;51.760;14.300;2022-09-03T11:15:41;3.27;;;1.50;;
17592;SDS011;8915;51.760;14.300;2022-09-03T11:18:14;1.60;;;1.40;;
17592;SDS011;8915;51.760;14.300;2022-09-03T11:20:47;1.37;;;1.20;;
17592;SDS011;8915;51.760;14.300;2022-09-03T11:23:17;2.07;;;1.50;;
17592;SDS011;8915;51.760;14.300;2022-09-03T11:25:46;1.67;;;1.23;;
17592;SDS011;8915;51.760;14.300;2022-09-03T11:28:19;1.63;;;1.23;;
17592;SDS011;8915;51.760;14.300;2022-09-03T11:31:00;1.63;;;1.00;;
17592;SDS011;8915;51.760;14.300;2022-09-03T11:33:43;1.93;;;1.30;;
17592;SDS011;8915;51.760;14.300;2022-09-03T11:36:25;1.60;;;1.20;;
17592;SDS011;8915;51.760;14.300;2022-09-03T11:38:57;1.60;;;1.37;;
17592;SDS011;8915;51.760;14.300;2022-09-03T11:41:25;2.70;;;1.40;;
17592;SDS011;8915;51.760;14.300;2022-09-03T11:43:53;1.33;;;1.07;;
17592;SDS011;8915;51.760;14.300;2022-09-03T11:46:26;1.40;;;1.23;;
17592;SDS011;8915;51.760;14.300;2022-09-03T11:48:55;3.20;;;1.40;;
17592;SDS011;8915;51.760;14.300;2022-09-03T11:51:29;3.80;;;1.20;;
17592;SDS011;8915;51.760;14.300;2022-09-03T11:54:01;1.30;;;1.20;;
17592;SDS011;8915;51.760;14.300;2022-09-03T11:56:29;3.63;;;1.30;;
17592;SDS011;8915;51.760;14.300;2022-09-03T11:58:58;3.08;;;1.10;;
17592;SDS011;8915;51.760;14.300;2022-09-03T12:01:27;1.73;;;1.23;;
17592;SDS011;8915;51.760;14.300;2022-09-03T12:03:56;1.83;;;1.13;;
17592;SDS011;8915;51.760;14.300;2022-09-03T12:06:34;5.17;;;1.50;;
17592;SDS011;8915;51.760;14.300;2022-09-03T12:09:24;1.73;;;1.23;;
17592;SDS011;8915;51.760;14.300;2022-09-03T12:12:07;1.73;;;1.45;;
17592;SDS011;8915;51.760;14.300;2022-09-03T12:14:44;3.43;;;1.40;;
17592;SDS011;8915;51.760;14.300;2022-09-03T12:17:22;3.73;;;1.30;;
17592;SDS011;8915;51.760;14.300;2022-09-03T12:19:56;1.80;;;1.40;;
17592;SDS011;8915;51.760;14.300;2022-09-03T12:22:24;2.83;;;1.60;;
17592;SDS011;8915;51.760;14.300;2022-09-03T12:24:54;2.65;;;1.48;;
17592;SDS011;8915;51.760;14.300;2022-09-03T12:27:21;2.53;;;1.50;;
17592;SDS011;8915;51.760;14.300;2022-09-03T12:29:49;2.45;;;1.55;;
17592;SDS011;8915;51.760;14.300;2022-09-03T12:32:20;1.93;;;1.50;;
17592;SDS011;8915;51.760;14.300;2022-09-03T12:34:46;1.40;;;1.05;;
17592;SDS011;8915;51.760;14.300;2022-09-03T12:37:17;1.70;;;1.42;;
17592;SDS011;8915;51.760;14.300;2022-09-03T12:39:49;3.43;;;1.63;;
17592;SDS011;8915;51.760;14.300;2022-09-03T12:42:19;13.80;;;5.07;;
17592;SDS011;8915;51.760;14.300;2022-09-03T12:44:49;27.17;;;9.10;;
17592;SDS011;8915;51.760;14.300;2022-09-03T12:47:17;20.75;;;8.65;;
17592;SDS011;8915;51.760;14.300;2022-09-03T12:49:46;6.38;;;2.20;;
17592;SDS011;8915;51.760;14.300;2022-09-03T12:52:14;2.03;;;1.63;;
17592;SDS011;8915;51.760;14.300;2022-09-03T12:54:46;3.08;;;1.75;;
17592;SDS011;8915;51.760;14.300;2022-09-03T12:57:20;6.43;;;3.50;;
17592;SDS011;8915;51.760;14.300;2022-09-03T12:59:51;3.55;;;1.85;;
17592;SDS011;8915;51.760;14.300;2022-09-03T13:02:27;11.45;;;5.00;;
17592;SDS011;8915;51.760;14.300;2022-09-03T13:05:03;1.98;;;1.23;;
17592;SDS011;8915;51.760;14.300;2022-09-03T13:07:32;11.45;;;5.00;;
17592;SDS011;8915;51.760;14.300;2022-09-03T13:10:02;4.53;;;2.10;;
17592;SDS011;8915;51.760;14.300;2022-09-03T13:12:33;2.47;;;1.65;;
17592;SDS011;8915;51.760;14.300;2022-09-03T13:15:16;2.28;;;1.63;;
17592;SDS011;8915;51.760;14.300;2022-09-03T13:17:51;5.25;;;3.30;;
17592;SDS011;8915;51.760;14.300;2022-09-03T13:20:34;1.70;;;1.60;;
17592;SDS011;8915;51.760;14.300;2022-09-03T13:23:11;2.38;;;1.80;;
17592;SDS011;8915;51.760;14.300;2022-09-03T13:25:56;2.05;;;1.50;;
17592;SDS011;8915;51.760;14.300;2022-09-03T13:28:36;4.55;;;1.95;;
17592;SDS011;8915;51.760;14.300;2022-09-03T13:31:21;3.75;;;1.90;;
17592;SDS011;8915;51.760;14.300;2022-09-03T13:33:54;2.43;;;1.70;;
17592;SDS011;8915;51.760;14.300;2022-09-03T13:36:25;2.67;;;1.60;;
17592;SDS011;8915;51.760;14.300;2022-09-03T13:38:57;3.57;;;1.50;;
17592;SDS011;8915;51.760;14.300;2022-09-03T13:41:31;2.23;;;1.30;;
17592;SDS011;8915;51.760;14.300;2022-09-03T13:44:05;2.33;;;1.43;;
17592;SDS011;8915;51.760;14.300;2022-09-03T13:46:39;1.77;;;1.50;;
17592;SDS011;8915;51.760;14.300;2022-09-03T13:49:12;1.80;;;1.25;;
17592;SDS011;8915;51.760;14.300;2022-09-03T13:52:11;2.38;;;1.20;;
17592;SDS011;8915;51.760;14.300;2022-09-03T13:54:48;2.10;;;1.38;;
17592;SDS011;8915;51.760;14.300;2022-09-03T13:57:23;2.72;;;1.42;;
17592;SDS011;8915;51.760;14.300;2022-09-03T13:59:59;2.20;;;1.30;;
17592;SDS011;8915;51.760;14.300;2022-09-03T14:02:32;5.53;;;1.40;;
17592;SDS011;8915;51.760;14.300;2022-09-03T14:05:12;2.22;;;1.45;;
17592;SDS011;8915;51.760;14.300;2022-09-03T14:07:51;1.73;;;1.33;;
17592;SDS011;8915;51.760;14.300;2022-09-03T14:10:38;1.60;;;1.50;;
17592;SDS011;8915;51.760;14.300;2022-09-03T14:13:18;2.60;;;1.55;;
17592;SDS011;8915;51.760;14.300;2022-09-03T14:15:54;6.10;;;1.50;;
17592;SDS011;8915;51.760;14.300;2022-09-03T14:18:33;3.42;;;1.50;;
17592;SDS011;8915;51.760;14.300;2022-09-03T14:21:07;2.25;;;1.63;;
17592;SDS011;8915;51.760;14.300;2022-09-03T14:23:39;2.80;;;1.30;;
17592;SDS011;8915;51.760;14.300;2022-09-03T14:26:14;1.67;;;1.42;;
17592;SDS011;8915;51.760;14.300;2022-09-03T14:28:43;1.65;;;1.52;;
17592;SDS011;8915;51.760;14.300;2022-09-03T14:31:15;1.33;;;1.23;;
17592;SDS011;8915;51.760;14.300;2022-09-03T14:33:50;2.33;;;1.40;;
17592;SDS011;8915;51.760;14.300;2022-09-03T14:36:23;1.90;;;1.67;;
17592;SDS011;8915;51.760;14.300;2022-09-03T14:39:01;3.45;;;1.20;;
17592;SDS011;8915;51.760;14.300;2022-09-03T14:41:50;2.17;;;1.50;;
17592;SDS011;8915;51.760;14.300;2022-09-03T14:44:36;1.73;;;1.50;;
17592;SDS011;8915;51.760;14.300;2022-09-03T14:47:21;1.50;;;1.20;;
17592;SDS011;8915;51.760;14.300;2022-09-03T14:50:02;1.90;;;1.40;;
17592;SDS011;8915;51.760;14.300;2022-09-03T14:52:56;2.88;;;1.73;;
17592;SDS011;8915;51.760;14.300;2022-09-03T14:55:36;1.77;;;1.50;;
17592;SDS011;8915;51.760;14.300;2022-09-03T14:58:28;2.28;;;1.70;;
17592;SDS011;8915;51.760;14.300;2022-09-03T15:01:09;2.90;;;1.77;;
17592;SDS011;8915;51.760;14.300;2022-09-03T15:06:39;1.63;;;1.40;;
17592;SDS011;8915;51.760;14.300;2022-09-03T15:09:21;3.10;;;1.63;;
17592;SDS011;8915;51.760;14.300;2022-09-03T15:11:56;2.00;;;1.50;;
17592;SDS011;8915;51.760;14.300;2022-09-03T15:14:27;3.42;;;2.03;;
17592;SDS011;8915;51.760;14.300;2022-09-03T15:17:16;2.17;;;1.50;;
17592;SDS011;8915;51.760;14.300;2022-09-03T15:19:59;2.97;;;1.70;;